createdAt,value
2022-07-29T10:06:00.000Z,43.408203
2022-07-29T10:06:21.000Z,43.084717
2022-07-29T10:06:41.000Z,43.188477
2022-07-29T10:07:10.000Z,42.864990
2022-07-29T10:07:30.000Z,42.968750
2022-07-29T10:07:50.000Z,42.272949
2022-07-29T10:08:53.000Z,41.040039
2022-07-29T10:09:13.000Z,41.235352
2022-07-29T10:09:35.000Z,41.516113
2022-07-29T10:09:55.000Z,41.015625
2022-07-29T10:10:15.000Z,40.600586
2022-07-29T10:10:35.000Z,40.203857
2022-07-29T10:10:56.000Z,40.185547
2022-07-29T10:11:16.000Z,40.185547
2022-07-29T10:11:36.000Z,40.283203
2022-07-29T10:12:03.000Z,39.471436
2022-07-29T10:12:23.000Z,38.977051
2022-07-29T10:12:44.000Z,38.879395
2022-07-29T10:13:04.000Z,38.360596
2022-07-29T10:13:24.000Z,38.262939
2022-07-29T10:13:44.000Z,38.049316
2022-07-29T10:14:05.000Z,37.945557
2022-07-29T10:14:25.000Z,37.634277
2022-07-29T10:14:45.000Z,37.530518
2022-07-29T10:15:05.000Z,37.133789
2022-07-29T10:15:26.000Z,37.335205
2022-07-29T10:15:46.000Z,37.432861
2022-07-29T10:16:06.000Z,36.743164
2022-07-29T10:16:26.000Z,36.145020
2022-07-29T10:16:46.000Z,36.444092
2022-07-29T10:17:07.000Z,36.621094
2022-07-29T10:17:27.000Z,37.414551
2022-07-29T10:17:47.000Z,37.219238
2022-07-29T10:18:07.000Z,36.822510
2022-07-29T10:18:28.000Z,35.534668
2022-07-29T10:18:48.000Z,35.534668
2022-07-29T10:19:08.000Z,36.029053
2022-07-29T10:19:29.000Z,36.523438
2022-07-29T10:19:49.000Z,36.425781
2022-07-29T10:20:09.000Z,36.425781
2022-07-29T10:20:29.000Z,35.729980
2022-07-29T10:20:50.000Z,36.425781
2022-07-29T10:21:10.000Z,35.632324
2022-07-29T10:22:41.000Z,39.611816
2022-07-29T10:23:01.000Z,41.491699
2022-07-29T10:23:22.000Z,43.078613
